sensor_id;sensor_type;location;lat;lon;timestamp;pressure;altitude;pressure_sealevel;temperature;humidity
64876;BME280;51369;49.862;9.908;2023-03-25T00:01:20;97462.09;;;10.57;82.11
64876;BME280;51369;49.862;9.908;2023-03-25T00:03:50;97457.47;;;10.59;82.18
64876;BME280;51369;49.862;9.908;2023-03-25T00:06:17;97461.03;;;10.60;82.93
64876;BME280;51369;49.862;9.908;2023-03-25T00:08:43;97463.56;;;10.63;82.42
64876;BME280;51369;49.862;9.908;2023-03-25T00:11:08;97472.53;;;10.63;82.52
64876;BME280;51369;49.862;9.908;2023-03-25T00:13:34;97459.91;;;10.64;81.85
64876;BME280;51369;49.862;9.908;2023-03-25T00:16:01;97464.44;;;10.63;82.10
64876;BME280;51369;49.862;9.908;2023-03-25T00:18:28;97463.56;;;10.63;81.45
64876;BME280;51369;49.862;9.908;2023-03-25T00:20:58;97452.78;;;10.63;80.90
64876;BME280;51369;49.862;9.908;2023-03-25T00:23:24;97448.31;;;10.62;80.51
64876;BME280;51369;49.862;9.908;2023-03-25T00:25:49;97443.81;;;10.62;80.47
64876;BME280;51369;49.862;9.908;2023-03-25T00:28:16;97435.72;;;10.62;80.78
64876;BME280;51369;49.862;9.908;2023-03-25T00:30:44;97431.25;;;10.61;80.90
64876;BME280;51369;49.862;9.908;2023-03-25T00:33:09;97438.50;;;10.61;81.49
64876;BME280;51369;49.862;9.908;2023-03-25T00:35:36;97440.31;;;10.60;81.52
64876;BME280;51369;49.862;9.908;2023-03-25T00:38:04;97431.44;;;10.58;82.10
64876;BME280;51369;49.862;9.908;2023-03-25T00:40:32;97431.63;;;10.55;81.16
64876;BME280;51369;49.862;9.908;2023-03-25T00:43:02;97429.97;;;10.53;81.45
64876;BME280;51369;49.862;9.908;2023-03-25T00:45:28;97425.69;;;10.49;81.19
64876;BME280;51369;49.862;9.908;2023-03-25T00:47:54;97414.31;;;10.43;81.50
64876;BME280;51369;49.862;9.908;2023-03-25T00:50:20;97414.47;;;10.40;82.07
64876;BME280;51369;49.862;9.908;2023-03-25T00:52:49;97412.94;;;10.36;81.79
64876;BME280;51369;49.862;9.908;2023-03-25T00:55:16;97413.13;;;10.33;80.66
64876;BME280;51369;49.862;9.908;2023-03-25T00:57:41;97410.50;;;10.32;80.54
64876;BME280;51369;49.862;9.908;2023-03-25T01:00:10;97416.94;;;10.29;80.28
64876;BME280;51369;49.862;9.908;2023-03-25T01:02:37;97401.91;;;10.25;79.87
64876;BME280;51369;49.862;9.908;2023-03-25T01:05:06;97405.72;;;10.21;80.26
64876;BME280;51369;49.862;9.908;2023-03-25T01:07:33;97402.22;;;10.19;80.22
64876;BME280;51369;49.862;9.908;2023-03-25T01:09:59;97404.13;;;10.17;80.09
64876;BME280;51369;49.862;9.908;2023-03-25T01:12:25;97398.66;;;10.19;80.88
64876;BME280;51369;49.862;9.908;2023-03-25T01:14:53;97393.25;;;10.19;80.37
64876;BME280;51369;49.862;9.908;2023-03-25T01:17:18;97407.56;;;10.21;80.66
64876;BME280;51369;49.862;9.908;2023-03-25T01:19:44;97403.03;;;10.21;80.30
64876;BME280;51369;49.862;9.908;2023-03-25T01:22:09;97411.91;;;10.23;80.49
64876;BME280;51369;49.862;9.908;2023-03-25T01:24:36;97414.50;;;10.25;80.67
64876;BME280;51369;49.862;9.908;2023-03-25T01:27:02;97406.34;;;10.26;80.54
64876;BME280;51369;49.862;9.908;2023-03-25T01:29:28;97399.13;;;10.27;79.96
64876;BME280;51369;49.862;9.908;2023-03-25T01:31:55;97400.94;;;10.26;79.77
64876;BME280;51369;49.862;9.908;2023-03-25T01:34:21;97395.53;;;10.26;77.76
64876;BME280;51369;49.862;9.908;2023-03-25T01:36:47;97402.69;;;10.27;76.80
64876;BME280;51369;49.862;9.908;2023-03-25T01:39:15;97408.84;;;10.29;76.92
64876;BME280;51369;49.862;9.908;2023-03-25T01:41:42;97413.22;;;10.32;77.56
64876;BME280;51369;49.862;9.908;2023-03-25T01:46:42;97413.13;;;10.33;75.59
64876;BME280;51369;49.862;9.908;2023-03-25T01:49:13;97401.38;;;10.34;76.29
64876;BME280;51369;49.862;9.908;2023-03-25T01:51:43;97408.69;;;10.32;74.97
64876;BME280;51369;49.862;9.908;2023-03-25T01:54:12;97414.34;;;10.28;75.31
64876;BME280;51369;49.862;9.908;2023-03-25T01:56:44;97413.66;;;10.24;76.39
64876;BME280;51369;49.862;9.908;2023-03-25T01:59:12;97417.47;;;10.20;75.59
64876;BME280;51369;49.862;9.908;2023-03-25T02:01:39;97416.81;;;10.15;76.06
64876;BME280;51369;49.862;9.908;2023-03-25T02:04:05;97417.00;;;10.12;75.40
64876;BME280;51369;49.862;9.908;2023-03-25T02:06:43;97419.09;;;10.07;75.57
64876;BME280;51369;49.862;9.908;2023-03-25T02:09:10;97426.56;;;10.02;76.08
64876;BME280;51369;49.862;9.908;2023-03-25T02:11:38;97411.50;;;9.98;75.97
64876;BME280;51369;49.862;9.908;2023-03-25T02:14:15;97414.53;;;9.92;75.91
64876;BME280;51369;49.862;9.908;2023-03-25T02:41:54;97405.59;;;9.58;76.33
64876;BME280;51369;49.862;9.908;2023-03-25T02:44:38;97411.00;;;9.58;76.47
64876;BME280;51369;49.862;9.908;2023-03-25T02:47:13;97411.88;;;9.59;76.80
64876;BME280;51369;49.862;9.908;2023-03-25T02:49:44;97418.13;;;9.59;76.37
64876;BME280;51369;49.862;9.908;2023-03-25T02:52:16;97413.59;;;9.60;77.23
64876;BME280;51369;49.862;9.908;2023-03-25T02:54:45;97404.66;;;9.59;75.88
64876;BME280;51369;49.862;9.908;2023-03-25T02:57:16;97417.16;;;9.60;76.45
64876;BME280;51369;49.862;9.908;2023-03-25T02:59:44;97416.13;;;9.63;76.89
64876;BME280;51369;49.862;9.908;2023-03-25T03:02:12;97426.91;;;9.63;77.11
64876;BME280;51369;49.862;9.908;2023-03-25T03:04:57;97423.34;;;9.62;76.61
64876;BME280;51369;49.862;9.908;2023-03-25T03:07:27;97420.56;;;9.64;77.39
64876;BME280;51369;49.862;9.908;2023-03-25T03:10:08;97433.25;;;9.62;77.59
64876;BME280;51369;49.862;9.908;2023-03-25T03:15:27;97418.13;;;9.59;78.17
64876;BME280;51369;49.862;9.908;2023-03-25T03:18:27;97423.50;;;9.59;79.03
64876;BME280;51369;49.862;9.908;2023-03-25T03:21:09;97430.72;;;9.59;78.43
64876;BME280;51369;49.862;9.908;2023-03-25T03:23:59;97441.66;;;9.56;77.30
64876;BME280;51369;49.862;9.908;2023-03-25T03:26:40;97440.00;;;9.53;74.91
64876;BME280;51369;49.862;9.908;2023-03-25T03:29:14;97445.56;;;9.50;75.04
64876;BME280;51369;49.862;9.908;2023-03-25T03:31:44;97437.72;;;9.45;73.87
64876;BME280;51369;49.862;9.908;2023-03-25T03:34:20;97426.41;;;9.39;75.38
64876;BME280;51369;49.862;9.908;2023-03-25T03:36:50;97421.19;;;9.36;75.67
64876;BME280;51369;49.862;9.908;2023-03-25T03:39:24;97417.94;;;9.29;74.42
64876;BME280;51369;49.862;9.908;2023-03-25T03:41:57;97423.56;;;9.25;75.56
64876;BME280;51369;49.862;9.908;2023-03-25T03:44:29;97403.28;;;9.18;74.68
64876;BME280;51369;49.862;9.908;2023-03-25T03:47:00;97409.78;;;9.13;74.67
64876;BME280;51369;49.862;9.908;2023-03-25T03:49:31;97404.72;;;9.07;75.05
64876;BME280;51369;49.862;9.908;2023-03-25T03:52:23;97410.44;;;9.01;75.69
64876;BME280;51369;49.862;9.908;2023-03-25T03:55:37;97421.34;;;8.98;75.40
64876;BME280;51369;49.862;9.908;2023-03-25T03:57:53;97418.97;;;8.92;75.45
64876;BME280;51369;49.862;9.908;2023-03-25T04:00:27;97420.09;;;8.88;75.47
64876;BME280;51369;49.862;9.908;2023-03-25T04:03:00;97414.06;;;8.83;76.20
64876;BME280;51369;49.862;9.908;2023-03-25T04:05:27;97422.28;;;8.80;76.38
64876;BME280;51369;49.862;9.908;2023-03-25T04:08:03;97433.28;;;8.75;76.41
64876;BME280;51369;49.862;9.908;2023-03-25T04:10:40;97432.56;;;8.72;75.77
64876;BME280;51369;49.862;9.908;2023-03-25T04:13:12;97447.94;;;8.70;76.09
64876;BME280;51369;49.862;9.908;2023-03-25T04:15:39;97448.88;;;8.69;76.93
64876;BME280;51369;49.862;9.908;2023-03-25T04:18:05;97457.91;;;8.68;76.89
64876;BME280;51369;49.862;9.908;2023-03-25T04:20:32;97455.31;;;8.66;77.47
64876;BME280;51369;49.862;9.908;2023-03-25T04:23:02;97466.22;;;8.63;77.12
64876;BME280;51369;49.862;9.908;2023-03-25T04:25:34;97460.91;;;8.62;76.70
64876;BME280;51369;49.862;9.908;2023-03-25T04:27:59;97459.19;;;8.61;76.81
64876;BME280;51369;49.862;9.908;2023-03-25T04:30:26;97457.44;;;8.60;75.71
64876;BME280;51369;49.862;9.908;2023-03-25T04:32:52;97460.91;;;8.62;76.62
64876;BME280;51369;49.862;9.908;2023-03-25T04:35:18;97461.78;;;8.62;75.77
64876;BME280;51369;49.862;9.908;2023-03-25T04:37:45;97460.84;;;8.63;75.95
64876;BME280;51369;49.862;9.908;2023-03-25T04:40:14;97466.22;;;8.63;76.61
64876;BME280;51369;49.862;9.908;2023-03-25T04:42:43;97459.97;;;8.63;76.42
64876;BME280;51369;49.862;9.908;2023-03-25T04:45:11;97458.09;;;8.65;76.28
64876;BME280;51369;49.862;9.908;2023-03-25T04:47:39;97457.03;;;8.67;75.90
64876;BME280;51369;49.862;9.908;2023-03-25T04:50:25;97466.91;;;8.67;77.04
64876;BME280;51369;49.862;9.908;2023-03-25T04:52:51;97472.16;;;8.70;76.31
64876;BME280;51369;49.862;9.908;2023-03-25T04:55:18;97473.88;;;8.71;75.84
64876;BME280;51369;49.862;9.908;2023-03-25T04:57:49;97472.94;;;8.72;75.37
64876;BME280;51369;49.862;9.908;2023-03-25T05:00:17;97472.88;;;8.73;75.54
64876;BME280;51369;49.862;9.908;2023-03-25T05:02:45;97470.09;;;8.75;74.96
64876;BME280;51369;49.862;9.908;2023-03-25T05:05:15;97477.22;;;8.76;75.39
64876;BME280;51369;49.862;9.908;2023-03-25T05:07:49;97480.72;;;8.78;75.86
64876;BME280;51369;49.862;9.908;2023-03-25T05:10:16;97489.66;;;8.78;76.21
64876;BME280;51369;49.862;9.908;2023-03-25T05:12:41;97494.09;;;8.79;76.44
64876;BME280;51369;49.862;9.908;2023-03-25T05:15:08;97486.88;;;8.80;76.38
64876;BME280;51369;49.862;9.908;2023-03-25T05:17:33;97484.13;;;8.81;77.15
64876;BME280;51369;49.862;9.908;2023-03-25T05:19:59;97462.59;;;8.81;76.78
64876;BME280;51369;49.862;9.908;2023-03-25T05:22:24;97485.06;;;8.80;75.87
64876;BME280;51369;49.862;9.908;2023-03-25T05:24:49;97468.13;;;8.78;75.89
64876;BME280;51369;49.862;9.908;2023-03-25T05:27:20;97480.78;;;8.76;75.83
64876;BME280;51369;49.862;9.908;2023-03-25T05:29:45;97483.69;;;8.72;75.51
64876;BME280;51369;49.862;9.908;2023-03-25T05:32:11;97487.41;;;8.69;75.16
64876;BME280;51369;49.862;9.908;2023-03-25T05:34:43;97485.66;;;8.68;74.71
64876;BME280;51369;49.862;9.908;2023-03-25T05:37:14;97486.47;;;8.70;75.13
64876;BME280;51369;49.862;9.908;2023-03-25T05:39:40;97478.16;;;8.75;74.66
64876;BME280;51369;49.862;9.908;2023-03-25T05:42:05;97492.41;;;8.77;74.16
64876;BME280;51369;49.862;9.908;2023-03-25T05:44:31;97494.00;;;8.81;73.98
64876;BME280;51369;49.862;9.908;2023-03-25T05:46:56;97506.44;;;8.84;74.84
64876;BME280;51369;49.862;9.908;2023-03-25T05:49:27;97503.69;;;8.85;74.90
64876;BME280;51369;49.862;9.908;2023-03-25T05:51:52;97509.00;;;8.87;73.98
64876;BME280;51369;49.862;9.908;2023-03-25T05:54:20;97502.66;;;8.88;74.13
64876;BME280;51369;49.862;9.908;2023-03-25T05:56:51;97522.22;;;8.91;74.29
64876;BME280;51369;49.862;9.908;2023-03-25T05:59:16;97508.75;;;8.91;73.63
64876;BME280;51369;49.862;9.908;2023-03-25T06:01:42;97511.28;;;8.94;74.41
64876;BME280;51369;49.862;9.908;2023-03-25T06:04:10;97507.66;;;8.95;72.91
64876;BME280;51369;49.862;9.908;2023-03-25T06:06:37;97511.16;;;8.97;72.97
64876;BME280;51369;49.862;9.908;2023-03-25T06:09:04;97515.56;;;8.98;72.98
64876;BME280;51369;49.862;9.908;2023-03-25T06:11:30;97521.75;;;9.00;73.28
64876;BME280;51369;49.862;9.908;2023-03-25T06:13:55;97524.31;;;9.03;73.60
64876;BME280;51369;49.862;9.908;2023-03-25T06:16:23;97515.19;;;9.06;73.13
64876;BME280;51369;49.862;9.908;2023-03-25T06:18:52;97532.94;;;9.10;73.68
64876;BME280;51369;49.862;9.908;2023-03-25T06:21:22;97531.91;;;9.12;72.83
64876;BME280;51369;49.862;9.908;2023-03-25T06:23:48;97534.38;;;9.17;73.26
64876;BME280;51369;49.862;9.908;2023-03-25T06:26:17;97536.03;;;9.20;73.39
64876;BME280;51369;49.862;9.908;2023-03-25T06:28:43;97534.22;;;9.20;73.55
64876;BME280;51369;49.862;9.908;2023-03-25T06:31:17;97535.25;;;9.18;74.27
64876;BME280;51369;49.862;9.908;2023-03-25T06:33:46;97532.63;;;9.16;73.97
64876;BME280;51369;49.862;9.908;2023-03-25T06:36:13;97543.47;;;9.14;74.25
64876;BME280;51369;49.862;9.908;2023-03-25T06:38:43;97533.66;;;9.13;74.84
64876;BME280;51369;49.862;9.908;2023-03-25T06:41:12;97527.31;;;9.14;75.70
64876;BME280;51369;49.862;9.908;2023-03-25T06:43:46;97534.44;;;9.16;74.90
64876;BME280;51369;49.862;9.908;2023-03-25T06:46:31;97534.38;;;9.17;75.77
64876;BME280;51369;49.862;9.908;2023-03-25T06:49:29;97540.63;;;9.18;75.87
64876;BME280;51369;49.862;9.908;2023-03-25T06:51:55;97538.72;;;9.20;76.39
64876;BME280;51369;49.862;9.908;2023-03-25T06:54:20;97537.72;;;9.22;75.83
64876;BME280;51369;49.862;9.908;2023-03-25T06:56:46;97539.22;;;9.28;76.51
64876;BME280;51369;49.862;9.908;2023-03-25T06:59:12;97541.44;;;9.37;76.49
64876;BME280;51369;49.862;9.908;2023-03-25T07:01:37;97548.19;;;9.45;76.40
64876;BME280;51369;49.862;9.908;2023-03-25T07:04:03;97540.81;;;9.49;74.31
64876;BME280;51369;49.862;9.908;2023-03-25T07:06:28;97536.06;;;9.54;74.60
64876;BME280;51369;49.862;9.908;2023-03-25T07:08:55;97541.28;;;9.57;74.50
64876;BME280;51369;49.862;9.908;2023-03-25T07:11:25;97539.31;;;9.61;75.81
64876;BME280;51369;49.862;9.908;2023-03-25T07:13:52;97530.81;;;9.68;75.15
64876;BME280;51369;49.862;9.908;2023-03-25T07:16:19;97551.19;;;9.74;74.15
64876;BME280;51369;49.862;9.908;2023-03-25T07:18:45;97545.41;;;9.82;73.96
64876;BME280;51369;49.862;9.908;2023-03-25T07:21:10;97543.41;;;9.85;73.62
64876;BME280;51369;49.862;9.908;2023-03-25T07:23:36;97551.41;;;9.87;73.44
64876;BME280;51369;49.862;9.908;2023-03-25T07:26:01;97545.88;;;9.90;73.28
64876;BME280;51369;49.862;9.908;2023-03-25T07:28:27;97549.19;;;9.95;74.65
64876;BME280;51369;49.862;9.908;2023-03-25T07:30:52;97553.28;;;10.02;74.65
64876;BME280;51369;49.862;9.908;2023-03-25T07:33:18;97542.34;;;10.05;72.27
64876;BME280;51369;49.862;9.908;2023-03-25T07:35:44;97554.72;;;10.09;73.12
64876;BME280;51369;49.862;9.908;2023-03-25T07:38:09;97552.72;;;10.13;73.20
64876;BME280;51369;49.862;9.908;2023-03-25T07:40:35;97552.56;;;10.16;72.33
64876;BME280;51369;49.862;9.908;2023-03-25T07:43:00;97555.16;;;10.17;72.52
64876;BME280;51369;49.862;9.908;2023-03-25T07:45:41;97568.75;;;10.16;71.53
64876;BME280;51369;49.862;9.908;2023-03-25T07:48:07;97564.38;;;10.13;70.72
64876;BME280;51369;49.862;9.908;2023-03-25T07:50:39;97569.22;;;10.06;70.04
64876;BME280;51369;49.862;9.908;2023-03-25T07:53:05;97570.28;;;10.04;72.01
64876;BME280;51369;49.862;9.908;2023-03-25T07:55:31;97575.59;;;10.05;72.45
64876;BME280;51369;49.862;9.908;2023-03-25T07:57:56;97577.06;;;10.11;73.32
64876;BME280;51369;49.862;9.908;2023-03-25T08:00:28;97566.91;;;10.16;74.66
64876;BME280;51369;49.862;9.908;2023-03-25T08:02:54;97557.78;;;10.19;73.80
64876;BME280;51369;49.862;9.908;2023-03-25T08:05:19;97562.00;;;10.24;72.94
64876;BME280;51369;49.862;9.908;2023-03-25T08:07:48;97569.59;;;10.33;73.94
64876;BME280;51369;49.862;9.908;2023-03-25T08:10:14;97561.94;;;10.41;74.90
64876;BME280;51369;49.862;9.908;2023-03-25T08:12:40;97564.28;;;10.48;73.44
64876;BME280;51369;49.862;9.908;2023-03-25T08:15:07;97554.97;;;10.53;74.05
64876;BME280;51369;49.862;9.908;2023-03-25T08:17:33;97562.66;;;10.61;73.47
64876;BME280;51369;49.862;9.908;2023-03-25T08:19:58;97562.41;;;10.65;72.36
64876;BME280;51369;49.862;9.908;2023-03-25T08:22:25;97568.25;;;10.73;73.70
64876;BME280;51369;49.862;9.908;2023-03-25T08:24:51;97563.19;;;10.83;71.31
64876;BME280;51369;49.862;9.908;2023-03-25T08:27:16;97564.50;;;10.92;70.24
64876;BME280;51369;49.862;9.908;2023-03-25T08:29:43;97569.81;;;11.09;72.52
64876;BME280;51369;49.862;9.908;2023-03-25T08:32:08;97571.63;;;11.24;71.41
64876;BME280;51369;49.862;9.908;2023-03-25T08:34:33;97564.28;;;11.42;71.19
64876;BME280;51369;49.862;9.908;2023-03-25T08:37:04;97565.00;;;11.60;70.75
64876;BME280;51369;49.862;9.908;2023-03-25T08:39:31;97567.75;;;11.74;69.76
64876;BME280;51369;49.862;9.908;2023-03-25T08:42:04;97564.63;;;11.82;69.21
64876;BME280;51369;49.862;9.908;2023-03-25T08:44:29;97559.81;;;11.87;68.64
64876;BME280;51369;49.862;9.908;2023-03-25T08:46:55;97555.09;;;11.90;67.86
64876;BME280;51369;49.862;9.908;2023-03-25T08:49:20;97556.63;;;11.94;68.19
64876;BME280;51369;49.862;9.908;2023-03-25T08:51:45;97549.22;;;11.98;68.35
64876;BME280;51369;49.862;9.908;2023-03-25T08:54:11;97538.97;;;12.03;68.25
64876;BME280;51369;49.862;9.908;2023-03-25T08:56:36;97553.00;;;12.10;68.17
64876;BME280;51369;49.862;9.908;2023-03-25T08:59:01;97558.66;;;12.19;68.37
64876;BME280;51369;49.862;9.908;2023-03-25T09:01:27;97554.22;;;12.32;67.77
64876;BME280;51369;49.862;9.908;2023-03-25T09:03:53;97536.25;;;12.46;67.93
64876;BME280;51369;49.862;9.908;2023-03-25T09:06:19;97545.34;;;12.59;66.92
64876;BME280;51369;49.862;9.908;2023-03-25T09:08:45;97552.00;;;12.67;66.39
64876;BME280;51369;49.862;9.908;2023-03-25T09:11:10;97549.00;;;12.72;66.46
64876;BME280;51369;49.862;9.908;2023-03-25T09:13:37;97552.28;;;12.77;65.78
64876;BME280;51369;49.862;9.908;2023-03-25T09:16:02;97555.75;;;12.79;65.72
64876;BME280;51369;49.862;9.908;2023-03-25T09:18:28;97566.59;;;12.79;65.74
64876;BME280;51369;49.862;9.908;2023-03-25T09:20:59;97556.91;;;12.75;64.86
64876;BME280;51369;49.862;9.908;2023-03-25T09:23:25;97558.84;;;12.73;65.11
64876;BME280;51369;49.862;9.908;2023-03-25T09:25:51;97545.41;;;12.71;65.65
64876;BME280;51369;49.862;9.908;2023-03-25T09:28:16;97552.66;;;12.71;65.02
64876;BME280;51369;49.862;9.908;2023-03-25T09:30:41;97560.03;;;12.69;64.94
64876;BME280;51369;49.862;9.908;2023-03-25T09:33:07;97547.34;;;12.69;64.54
64876;BME280;51369;49.862;9.908;2023-03-25T09:35:32;97525.38;;;12.74;64.93
64876;BME280;51369;49.862;9.908;2023-03-25T09:37:58;97523.06;;;12.82;64.52
64876;BME280;51369;49.862;9.908;2023-03-25T09:40:23;97529.41;;;12.95;64.31
64876;BME280;51369;49.862;9.908;2023-03-25T09:45:53;97531.78;;;13.14;64.24
64876;BME280;51369;49.862;9.908;2023-03-25T09:48:39;97523.47;;;13.17;64.82
64876;BME280;51369;49.862;9.908;2023-03-25T09:51:09;97529.34;;;13.24;65.08
64876;BME280;51369;49.862;9.908;2023-03-25T09:53:45;97531.66;;;13.30;64.46
64876;BME280;51369;49.862;9.908;2023-03-25T09:56:17;97517.88;;;13.33;64.32
64876;BME280;51369;49.862;9.908;2023-03-25T09:58:49;97506.19;;;13.32;64.11
64876;BME280;51369;49.862;9.908;2023-03-25T10:01:29;97505.09;;;13.35;64.00
64876;BME280;51369;49.862;9.908;2023-03-25T10:04:12;97507.19;;;13.44;62.74
64876;BME280;51369;49.862;9.908;2023-03-25T10:06:56;97498.22;;;13.56;63.18
64876;BME280;51369;49.862;9.908;2023-03-25T10:10:24;97490.31;;;13.66;62.67
64876;BME280;51369;49.862;9.908;2023-03-25T10:17:46;97489.16;;;13.83;64.23
64876;BME280;51369;49.862;9.908;2023-03-25T10:23:20;97495.44;;;13.83;64.65
64876;BME280;51369;49.862;9.908;2023-03-25T10:25:51;97505.09;;;13.75;64.44
64876;BME280;51369;49.862;9.908;2023-03-25T10:28:26;97540.53;;;13.59;64.90
64876;BME280;51369;49.862;9.908;2023-03-25T10:30:53;97516.25;;;13.30;65.17
64876;BME280;51369;49.862;9.908;2023-03-25T10:33:51;97511.63;;;12.91;66.61
64876;BME280;51369;49.862;9.908;2023-03-25T10:36:27;97520.75;;;12.76;67.67
64876;BME280;51369;49.862;9.908;2023-03-25T10:38:56;97505.28;;;12.64;67.85
64876;BME280;51369;49.862;9.908;2023-03-25T10:41:30;97499.69;;;12.53;67.66
64876;BME280;51369;49.862;9.908;2023-03-25T10:43:59;97494.56;;;12.48;68.94
64876;BME280;51369;49.862;9.908;2023-03-25T10:46:32;97498.16;;;12.49;69.63
64876;BME280;51369;49.862;9.908;2023-03-25T10:49:01;97496.03;;;12.54;69.35
64876;BME280;51369;49.862;9.908;2023-03-25T10:51:29;97498.44;;;12.58;69.51
64876;BME280;51369;49.862;9.908;2023-03-25T10:53:56;97502.56;;;12.64;69.95
64876;BME280;51369;49.862;9.908;2023-03-25T10:56:38;97504.03;;;12.69;69.67
64876;BME280;51369;49.862;9.908;2023-03-25T10:59:17;97512.81;;;12.73;69.12
64876;BME280;51369;49.862;9.908;2023-03-25T11:01:45;97521.13;;;12.70;69.08
64876;BME280;51369;49.862;9.908;2023-03-25T11:04:16;97531.59;;;12.62;68.40
64876;BME280;51369;49.862;9.908;2023-03-25T11:06:44;97522.41;;;12.50;68.93
64876;BME280;51369;49.862;9.908;2023-03-25T11:09:14;97521.75;;;12.47;69.83
64876;BME280;51369;49.862;9.908;2023-03-25T11:11:42;97514.69;;;12.58;70.27
64876;BME280;51369;49.862;9.908;2023-03-25T11:14:09;97513.78;;;12.72;69.87
64876;BME280;51369;49.862;9.908;2023-03-25T11:16:42;97522.19;;;12.82;69.40
64876;BME280;51369;49.862;9.908;2023-03-25T11:19:17;97523.81;;;12.84;69.08
64876;BME280;51369;49.862;9.908;2023-03-25T11:21:46;97525.56;;;12.85;69.40
64876;BME280;51369;49.862;9.908;2023-03-25T11:24:16;97525.94;;;12.93;68.88
64876;BME280;51369;49.862;9.908;2023-03-25T11:26:45;97526.28;;;13.01;68.90
64876;BME280;51369;49.862;9.908;2023-03-25T11:29:15;97531.63;;;13.03;68.42
64876;BME280;51369;49.862;9.908;2023-03-25T11:31:42;97565.19;;;13.00;67.91
64876;BME280;51369;49.862;9.908;2023-03-25T11:36:54;97617.56;;;12.73;66.82
64876;BME280;51369;49.862;9.908;2023-03-25T11:39:36;97559.84;;;12.44;66.77
64876;BME280;51369;49.862;9.908;2023-03-25T11:44:51;97553.81;;;11.66;66.38
64876;BME280;51369;49.862;9.908;2023-03-25T11:47:24;97563.13;;;11.46;67.98
64876;BME280;51369;49.862;9.908;2023-03-25T11:49:51;97538.97;;;11.43;68.82
64876;BME280;51369;49.862;9.908;2023-03-25T11:52:21;97549.63;;;11.46;69.57
64876;BME280;51369;49.862;9.908;2023-03-25T11:54:48;97533.81;;;11.54;70.10
64876;BME280;51369;49.862;9.908;2023-03-25T11:57:22;97543.28;;;11.61;69.22
64876;BME280;51369;49.862;9.908;2023-03-25T11:59:49;97541.38;;;11.63;69.45
64876;BME280;51369;49.862;9.908;2023-03-25T12:02:28;97531.69;;;11.59;69.37
64876;BME280;51369;49.862;9.908;2023-03-25T12:07:22;97524.06;;;11.82;71.10
64876;BME280;51369;49.862;9.908;2023-03-25T12:10:04;97509.00;;;11.92;70.99
64876;BME280;51369;49.862;9.908;2023-03-25T12:32:22;97532.09;;;11.67;69.11
64876;BME280;51369;49.862;9.908;2023-03-25T12:35:24;97539.22;;;11.54;70.39
64876;BME280;51369;49.862;9.908;2023-03-25T12:41:10;97518.00;;;11.62;72.24
64876;BME280;51369;49.862;9.908;2023-03-25T13:06:16;97502.31;;;12.95;71.60
64876;BME280;51369;49.862;9.908;2023-03-25T13:08:56;97508.88;;;13.06;71.03
64876;BME280;51369;49.862;9.908;2023-03-25T13:11:49;97493.91;;;13.27;70.75
64876;BME280;51369;49.862;9.908;2023-03-25T13:14:20;97485.06;;;13.50;70.60
64876;BME280;51369;49.862;9.908;2023-03-25T13:16:51;97493.91;;;13.66;69.81
64876;BME280;51369;49.862;9.908;2023-03-25T13:19:22;97478.50;;;13.80;68.97
64876;BME280;51369;49.862;9.908;2023-03-25T13:21:52;97486.72;;;13.91;67.90
64876;BME280;51369;49.862;9.908;2023-03-25T13:24:42;97475.13;;;14.01;66.52
64876;BME280;51369;49.862;9.908;2023-03-25T13:27:11;97462.84;;;14.21;66.81
64876;BME280;51369;49.862;9.908;2023-03-25T13:29:41;97460.00;;;14.36;66.52
64876;BME280;51369;49.862;9.908;2023-03-25T13:32:35;97457.94;;;14.39;65.22
64876;BME280;51369;49.862;9.908;2023-03-25T13:35:12;97445.00;;;14.55;65.60
64876;BME280;51369;49.862;9.908;2023-03-25T13:37:45;97439.94;;;14.75;66.14
64876;BME280;51369;49.862;9.908;2023-03-25T13:40:36;97455.91;;;14.79;65.05
64876;BME280;51369;49.862;9.908;2023-03-25T13:46:20;97469.34;;;14.57;64.11
64876;BME280;51369;49.862;9.908;2023-03-25T13:49:03;97459.13;;;14.35;64.21
64876;BME280;51369;49.862;9.908;2023-03-25T13:51:31;97467.63;;;14.18;63.66
64876;BME280;51369;49.862;9.908;2023-03-25T13:59:46;97495.53;;;13.69;65.58
64876;BME280;51369;49.862;9.908;2023-03-25T14:05:00;97479.69;;;13.63;64.84
64876;BME280;51369;49.862;9.908;2023-03-25T14:08:14;97459.41;;;13.68;65.54
64876;BME280;51369;49.862;9.908;2023-03-25T14:10:58;97461.47;;;13.78;65.19
64876;BME280;51369;49.862;9.908;2023-03-25T14:13:36;97461.97;;;13.95;64.98
64876;BME280;51369;49.862;9.908;2023-03-25T14:16:07;97462.63;;;14.12;65.47
64876;BME280;51369;49.862;9.908;2023-03-25T14:18:41;97462.84;;;14.21;65.48
64876;BME280;51369;49.862;9.908;2023-03-25T14:24:04;97482.69;;;14.34;64.15
64876;BME280;51369;49.862;9.908;2023-03-25T14:26:32;97480.19;;;14.57;64.55
64876;BME280;51369;49.862;9.908;2023-03-25T14:29:04;97486.22;;;14.86;64.55
64876;BME280;51369;49.862;9.908;2023-03-25T14:31:32;97475.06;;;15.02;63.72
64876;BME280;51369;49.862;9.908;2023-03-25T14:39:09;97489.28;;;15.05;62.77
64876;BME280;51369;49.862;9.908;2023-03-25T14:42:08;97497.50;;;14.92;61.97
64876;BME280;51369;49.862;9.908;2023-03-25T14:44:40;97484.25;;;14.88;62.56
64876;BME280;51369;49.862;9.908;2023-03-25T14:50:00;97480.31;;;14.92;62.36
64876;BME280;51369;49.862;9.908;2023-03-25T14:52:30;97469.22;;;14.95;62.60
64876;BME280;51369;49.862;9.908;2023-03-25T14:54:58;97473.34;;;15.01;62.12
64876;BME280;51369;49.862;9.908;2023-03-25T14:57:28;97467.97;;;15.12;62.19
64876;BME280;51369;49.862;9.908;2023-03-25T15:00:00;97467.16;;;15.22;62.47
64876;BME280;51369;49.862;9.908;2023-03-25T15:02:37;97465.34;;;15.34;61.80
64876;BME280;51369;49.862;9.908;2023-03-25T15:08:10;97454.28;;;15.48;60.08
64876;BME280;51369;49.862;9.908;2023-03-25T15:10:43;97443.94;;;15.65;59.20
64876;BME280;51369;49.862;9.908;2023-03-25T15:13:17;97455.38;;;15.81;59.77
64876;BME280;51369;49.862;9.908;2023-03-25T15:18:12;97450.19;;;15.89;59.09
64876;BME280;51369;49.862;9.908;2023-03-25T15:21:04;97451.03;;;15.78;59.18
64876;BME280;51369;49.862;9.908;2023-03-25T15:26:33;97447.06;;;15.82;58.09
64876;BME280;51369;49.862;9.908;2023-03-25T15:29:08;97445.75;;;15.99;59.43